Time;durP1;ratioP1;P1;durP2;ratioP2;P2;SDS_P1;SDS_P2;PMS_P1;PMS_P2;Temp;Humidity;BMP_temperature;BMP_pressure;BME280_temperature;BME280_humidity;BME280_pressure;Samples;Min_cycle;Max_cycle;Signal;HPM_P1;HPM_P2
2023/05/21 00:00:21;;;;;;;7.18;1.98;;;;;;;10.59;55.45;101018.91;4973932;28;20050;-53
2023/05/21 00:02:50;;;;;;;5.03;1.65;;;;;;;10.57;56.04;101023.22;4970911;28;20051;-50
2023/05/21 00:05:17;;;;;;;5.10;2.17;;;;;;;10.53;56.33;101018.00;4972029;28;20039;-49
2023/05/21 00:07:45;;;;;;;4.38;1.75;;;;;;;10.50;55.77;101015.34;4966175;28;20055;-49
2023/05/21 00:10:12;;;;;;;4.72;1.88;;;;;;;10.48;56.25;101009.31;4971183;28;20051;-50
2023/05/21 00:12:40;;;;;;;4.68;1.73;;;;;;;10.45;56.00;101009.25;4977291;28;20074;-49
2023/05/21 00:15:08;;;;;;;7.13;2.00;;;;;;;10.41;56.40;101004.84;4971702;28;20054;-51
2023/05/21 00:17:35;;;;;;;7.03;2.15;;;;;;;10.39;55.83;101004.84;4975846;28;20051;-49
2023/05/21 00:20:06;;;;;;;4.40;1.52;;;;;;;10.38;56.38;101007.41;4962705;28;20039;-51
2023/05/21 00:22:32;;;;;;;3.97;1.80;;;;;;;10.34;55.98;101000.44;4973932;28;20057;-50
2023/05/21 00:24:59;;;;;;;5.78;2.10;;;;;;;10.30;56.88;100999.50;4971638;28;20050;-50
2023/05/21 00:27:26;;;;;;;5.68;1.58;;;;;;;10.26;56.91;100998.59;4978221;28;20046;-52
2023/05/21 00:29:52;;;;;;;4.25;1.55;;;;;;;10.21;56.46;100992.50;4970654;28;20050;-49
2023/05/21 00:32:19;;;;;;;4.60;1.75;;;;;;;10.17;57.08;100993.31;4972821;28;20058;-54
2023/05/21 00:34:47;;;;;;;5.40;2.58;;;;;;;10.14;56.78;100993.28;4975284;28;20046;-52
2023/05/21 00:37:14;;;;;;;12.05;2.30;;;;;;;10.08;57.21;100998.34;4968849;28;20050;-50
2023/05/21 00:39:41;;;;;;;3.78;2.00;;;;;;;10.05;56.81;101009.53;4968672;28;20801;-49
2023/05/21 00:42:08;;;;;;;10.70;1.90;;;;;;;10.00;56.92;101006.84;4969283;28;20050;-51
2023/05/21 00:44:34;;;;;;;7.32;1.88;;;;;;;9.96;57.25;100997.31;4972725;28;20503;-53
2023/05/21 00:47:02;;;;;;;5.32;2.45;;;;;;;9.91;57.70;100996.38;5000712;28;20109;-48
2023/05/21 00:49:30;;;;;;;5.75;1.50;;;;;;;9.87;57.77;100994.59;4981067;28;20051;-50
2023/05/21 00:52:00;;;;;;;3.55;2.58;;;;;;;9.79;57.50;100991.88;4972144;28;20403;-50
2023/05/21 00:54:27;;;;;;;3.50;1.83;;;;;;;9.73;57.43;100981.44;4979403;28;20491;-49
2023/05/21 00:56:55;;;;;;;4.40;2.17;;;;;;;9.70;57.73;100987.44;4971319;28;20134;-48
2023/05/21 00:59:22;;;;;;;7.90;1.85;;;;;;;9.66;57.90;100977.03;4961930;28;20051;-53
2023/05/21 01:01:54;;;;;;;8.25;1.85;;;;;;;9.64;57.91;100987.34;4965636;28;20046;-51
2023/05/21 01:04:22;;;;;;;6.22;1.88;;;;;;;9.59;57.98;100976.91;4969867;28;20042;-54
2023/05/21 01:06:49;;;;;;;9.52;1.95;;;;;;;9.57;57.37;100980.31;4997089;28;20050;-49
2023/05/21 01:09:16;;;;;;;5.40;2.03;;;;;;;9.54;57.82;100969.91;4971197;28;20088;-50
2023/05/21 01:11:48;;;;;;;4.10;2.08;;;;;;;9.49;58.14;100962.97;4972518;28;20058;-51
2023/05/21 01:14:16;;;;;;;5.45;1.85;;;;;;;9.46;58.32;100960.31;4968338;28;20047;-51
2023/05/21 01:16:46;;;;;;;4.30;1.70;;;;;;;9.43;57.90;100962.88;4970638;28;20038;-51
2023/05/21 01:19:17;;;;;;;5.03;1.83;;;;;;;9.41;57.94;100964.56;4973738;28;20129;-53
2023/05/21 01:21:51;;;;;;;5.18;1.92;;;;;;;9.36;58.26;100958.44;4969803;28;20052;-50
2023/05/21 01:24:18;;;;;;;6.28;2.00;;;;;;;9.32;58.08;100967.00;4968329;28;20266;-53
2023/05/21 01:26:45;;;;;;;6.65;2.55;;;;;;;9.26;58.49;100970.34;4971283;28;20079;-52
2023/05/21 01:29:12;;;;;;;9.45;2.25;;;;;;;9.23;58.02;100970.28;4960987;28;20539;-54
2023/05/21 01:34:54;;;;;;;8.35;2.97;;;;;;;9.12;58.34;100972.69;5047337;27;20417;-49
2023/05/21 01:40:44;;;;;;;8.52;2.25;;;;;;;8.98;58.32;100960.34;5085917;27;20392;-51
2023/05/21 01:43:12;;;;;;;5.13;2.20;;;;;;;8.97;59.36;100962.91;5009447;28;20041;-51
2023/05/21 01:45:41;;;;;;;4.45;1.83;;;;;;;8.92;59.16;100965.41;5024211;28;20049;-49
2023/05/21 01:48:10;;;;;;;7.95;2.15;;;;;;;8.89;59.90;100965.38;5023169;28;20112;-50
2023/05/21 01:50:39;;;;;;;7.95;2.05;;;;;;;8.84;59.76;100964.38;5022827;28;20053;-48
2023/05/21 01:53:05;;;;;;;6.97;2.20;;;;;;;8.82;59.54;100963.50;5020982;28;20042;-51
2023/05/21 01:55:32;;;;;;;6.57;2.05;;;;;;;8.79;60.29;100963.44;5020114;28;20132;-46
2023/05/21 01:57:59;;;;;;;7.18;3.78;;;;;;;8.77;60.34;100965.09;5022947;28;21014;-49
2023/05/21 02:00:28;;;;;;;3.55;1.95;;;;;;;8.73;60.41;100962.50;5022652;28;20050;-48
2023/05/21 02:02:55;;;;;;;6.53;2.10;;;;;;;8.74;60.88;100974.56;5027467;28;20096;-50
2023/05/21 02:05:22;;;;;;;7.68;2.00;;;;;;;8.73;60.19;100975.41;5023174;28;20057;-51
2023/05/21 02:07:50;;;;;;;6.80;2.17;;;;;;;8.72;59.95;100962.47;5035927;28;20107;-50
2023/05/21 02:10:18;;;;;;;4.82;1.95;;;;;;;8.71;60.19;100977.06;5042748;28;20069;-47
2023/05/21 02:12:45;;;;;;;5.15;2.05;;;;;;;8.71;60.46;100965.84;5039372;28;20068;-50
2023/05/21 02:15:13;;;;;;;9.23;3.15;;;;;;;8.70;61.21;100969.28;5043010;28;20386;-53
2023/05/21 02:17:41;;;;;;;6.55;2.47;;;;;;;8.70;60.81;100964.13;5019220;28;20053;-48
2023/05/21 02:20:11;;;;;;;4.85;2.50;;;;;;;8.69;60.58;100960.69;5020642;28;20041;-51
2023/05/21 02:22:38;;;;;;;;;;;;;;;8.55;61.63;100957.81;5019495;28;20038;-49
2023/05/21 02:25:06;;;;;;;7.82;1.85;;;;;;;8.62;61.22;100961.41;5020464;28;19971;-50
2023/05/21 02:27:35;;;;;;;8.27;2.60;;;;;;;8.62;60.34;100951.06;5023260;28;20417;-49
2023/05/21 02:30:05;;;;;;;8.32;3.83;;;;;;;8.61;60.64;100957.94;5023019;28;20444;-50
2023/05/21 02:32:32;;;;;;;;;;;;;;;8.44;61.34;100956.72;5019152;28;20050;-50
2023/05/21 02:35:02;;;;;;;10.70;2.47;;;;;;;8.48;60.82;100956.78;5018730;28;20281;-47
2023/05/21 02:37:33;;;;;;;5.45;2.25;;;;;;;8.46;60.45;100944.69;5021580;28;20501;-48
2023/05/21 02:40:03;;;;;;;7.32;2.72;;;;;;;8.43;60.65;100950.66;5017802;28;20053;-49
2023/05/21 02:42:29;;;;;;;5.40;2.55;;;;;;;8.41;61.06;100959.22;5017548;28;20501;-52
2023/05/21 02:44:56;;;;;;;7.40;4.20;;;;;;;8.40;61.13;100960.91;5014282;28;20052;-51
2023/05/21 02:47:24;;;;;;;5.32;2.40;;;;;;;8.40;61.02;100955.75;5026408;28;20049;-53
2023/05/21 02:49:51;;;;;;;5.88;2.80;;;;;;;8.40;60.17;100953.19;5029527;28;20124;-50
2023/05/21 02:52:22;;;;;;;5.57;3.85;;;;;;;8.39;61.14;100954.03;5019563;28;20058;-51
2023/05/21 02:54:50;;;;;;;4.80;2.45;;;;;;;8.37;60.79;100955.69;5001980;28;20086;-50
2023/05/21 02:57:17;;;;;;;6.13;2.80;;;;;;;8.34;61.14;100956.50;4999110;28;20058;-48
2023/05/21 02:59:44;;;;;;;9.73;4.30;;;;;;;8.31;61.28;100965.91;5024166;28;20044;-54
2023/05/21 03:02:11;;;;;;;6.40;2.75;;;;;;;8.28;61.60;100965.81;5027859;28;20041;-50
2023/05/21 03:04:44;;;;;;;7.50;4.45;;;;;;;8.25;60.71;100960.59;5027245;28;20493;-53
2023/05/21 03:07:13;;;;;;;7.60;2.58;;;;;;;8.19;61.51;100962.22;5022812;28;20166;-51
2023/05/21 03:09:41;;;;;;;10.05;4.57;;;;;;;8.18;61.54;100962.19;5019891;28;20049;-50
2023/05/21 03:12:08;;;;;;;9.45;2.42;;;;;;;8.12;60.70;100965.50;5024790;28;20099;-49
2023/05/21 03:14:35;;;;;;;11.40;2.83;;;;;;;8.11;62.10;100961.19;5022587;28;20042;-50
2023/05/21 03:17:04;;;;;;;6.93;4.47;;;;;;;8.07;62.34;100951.63;5025409;28;20049;-52
2023/05/21 03:19:34;;;;;;;9.23;3.33;;;;;;;8.06;62.69;100955.03;5027433;28;20053;-50
2023/05/21 03:22:02;;;;;;;9.93;3.45;;;;;;;8.04;61.99;100959.28;5024969;28;20054;-49
2023/05/21 03:24:30;;;;;;;7.68;2.65;;;;;;;8.02;62.70;100954.09;5017421;28;20057;-51
2023/05/21 03:26:58;;;;;;;11.85;5.25;;;;;;;8.02;62.21;100948.06;5002352;28;20056;-47
2023/05/21 03:29:24;;;;;;;10.20;3.35;;;;;;;8.01;62.66;100946.31;4987572;28;20052;-52
2023/05/21 03:31:52;;;;;;;7.10;3.10;;;;;;;7.98;63.23;100942.81;5016380;28;20042;-47
2023/05/21 03:34:19;;;;;;;9.98;3.47;;;;;;;7.98;62.83;100940.25;5014893;28;20074;-50
2023/05/21 03:36:46;;;;;;;12.05;4.00;;;;;;;8.01;63.34;100941.16;5009535;28;20075;-51
2023/05/21 03:39:13;;;;;;;9.00;3.30;;;;;;;7.98;63.77;100937.66;5024003;28;20046;-51
2023/05/21 03:41:40;;;;;;;8.23;3.80;;;;;;;7.98;62.72;100937.66;5024494;28;20056;-48
2023/05/21 03:44:07;;;;;;;10.55;3.70;;;;;;;7.96;63.65;100938.47;5008988;28;20876;-47
2023/05/21 03:46:34;;;;;;;11.38;3.10;;;;;;;7.94;63.52;100935.84;5017066;28;20124;-50
2023/05/21 03:49:01;;;;;;;10.05;5.13;;;;;;;7.93;63.80;100939.28;5019400;28;20055;-47
2023/05/21 03:51:29;;;;;;;13.95;3.50;;;;;;;7.91;63.58;100935.78;5026302;28;20100;-51
2023/05/21 03:53:57;;;;;;;12.32;4.32;;;;;;;7.90;63.89;100939.19;5026771;28;20083;-51
2023/05/21 03:56:24;;;;;;;12.90;5.00;;;;;;;7.90;63.06;100944.34;5025484;28;20045;-49
2023/05/21 03:58:51;;;;;;;13.35;5.78;;;;;;;7.88;63.04;100946.03;5024497;28;20041;-48
2023/05/21 04:01:18;;;;;;;8.60;4.85;;;;;;;7.88;63.43;100933.16;5024720;28;20057;-51
2023/05/21 04:03:45;;;;;;;11.57;3.72;;;;;;;7.89;64.87;100942.63;5044559;28;20050;-49
2023/05/21 04:06:12;;;;;;;13.98;3.70;;;;;;;7.88;64.22;100946.03;5026100;28;20049;-50
2023/05/21 04:08:39;;;;;;;10.75;5.13;;;;;;;7.89;64.83;100946.91;5026061;28;20045;-50
2023/05/21 04:11:06;;;;;;;13.13;4.10;;;;;;;7.92;64.94;100942.69;5022754;28;20054;-52
2023/05/21 04:13:32;;;;;;;10.25;3.60;;;;;;;7.91;64.72;100940.09;5024377;28;20120;-52
2023/05/21 04:15:59;;;;;;;9.10;5.25;;;;;;;7.92;64.59;100921.19;5027083;28;20146;-47
2023/05/21 04:18:26;;;;;;;11.75;3.65;;;;;;;7.93;64.69;100928.97;5026271;28;20057;-51
2023/05/21 04:20:52;;;;;;;10.23;5.65;;;;;;;7.94;64.42;100935.84;5027133;28;20535;-52
2023/05/21 04:23:22;;;;;;;9.27;5.13;;;;;;;7.93;63.37;100933.22;5027116;28;20124;-48
2023/05/21 04:25:49;;;;;;;11.88;3.67;;;;;;;7.93;64.47;100928.97;5025981;28;20072;-48
2023/05/21 04:28:18;;;;;;;12.02;3.70;;;;;;;7.95;64.30;100926.41;5025535;28;20041;-51
2023/05/21 04:30:46;;;;;;;12.82;3.80;;;;;;;7.95;63.94;100935.03;5023120;28;20121;-49
2023/05/21 04:33:16;;;;;;;16.65;3.83;;;;;;;7.96;63.61;100929.03;5006542;28;20045;-51
2023/05/21 04:35:48;;;;;;;11.75;4.32;;;;;;;7.97;63.80;100930.75;5027065;28;20087;-51
2023/05/21 04:38:18;;;;;;;11.32;3.60;;;;;;;7.96;63.64;100929.03;5022331;28;20076;-49
2023/05/21 04:40:49;;;;;;;14.65;4.05;;;;;;;7.96;64.49;100931.63;5011811;28;20081;-52
2023/05/21 04:43:16;;;;;;;7.72;3.92;;;;;;;7.94;63.67;100930.69;5007624;28;20045;-48
2023/05/21 04:45:42;;;;;;;13.52;5.50;;;;;;;7.94;64.93;100930.69;4992727;28;20053;-50
2023/05/21 04:48:09;;;;;;;11.15;4.28;;;;;;;7.96;63.63;100918.72;5006569;28;20050;-49
2023/05/21 04:50:35;;;;;;;11.85;5.53;;;;;;;7.98;64.41;100924.75;5019986;28;20447;-51
2023/05/21 04:53:02;;;;;;;14.00;5.82;;;;;;;8.02;63.95;100922.25;5026642;28;20053;-50
2023/05/21 04:55:29;;;;;;;9.40;3.60;;;;;;;8.06;63.75;100929.22;5022627;28;20051;-50
2023/05/21 04:57:56;;;;;;;12.70;4.40;;;;;;;8.08;64.22;100933.56;5024994;28;20666;-51
2023/05/21 05:00:24;;;;;;;9.02;4.18;;;;;;;8.13;64.20;100931.09;5024234;28;20041;-50
2023/05/21 05:02:51;;;;;;;8.48;3.80;;;;;;;8.19;64.87;100928.66;5028215;28;20060;-49
2023/05/21 05:05:18;;;;;;;11.93;4.30;;;;;;;8.26;64.43;100921.91;5022564;28;20049;-49
2023/05/21 05:07:45;;;;;;;8.80;4.43;;;;;;;8.33;64.90;100925.50;5023893;28;20045;-51
2023/05/21 05:10:11;;;;;;;13.25;4.30;;;;;;;8.42;64.55;100928.28;5023153;28;20056;-51
2023/05/21 05:12:38;;;;;;;17.15;7.20;;;;;;;8.49;65.05;100926.69;5023497;28;20049;-53
2023/05/21 05:15:05;;;;;;;15.40;4.70;;;;;;;8.59;64.59;100917.44;5021973;28;20064;-52
2023/05/21 05:17:33;;;;;;;13.50;7.53;;;;;;;8.68;64.75;100920.19;5026134;28;20565;-51
2023/05/21 05:20:00;;;;;;;15.75;5.03;;;;;;;8.79;65.35;100920.41;5025444;28;20042;-51
2023/05/21 05:22:26;;;;;;;17.63;4.97;;;;;;;8.90;65.39;100920.59;5024250;28;20052;-51
2023/05/21 05:24:53;;;;;;;12.02;4.38;;;;;;;9.02;65.19;100924.25;5022923;28;20037;-52
2023/05/21 05:27:20;;;;;;;14.55;5.25;;;;;;;9.10;65.41;100935.59;5020071;28;20041;-52
2023/05/21 05:29:47;;;;;;;11.27;4.95;;;;;;;9.18;65.37;100934.00;5023773;28;20044;-50
2023/05/21 05:32:13;;;;;;;11.18;4.93;;;;;;;9.19;65.59;100927.97;5022558;28;20046;-48
2023/05/21 05:34:41;;;;;;;7.90;3.72;;;;;;;9.21;65.68;100918.56;5019945;28;21187;-52
2023/05/21 05:37:08;;;;;;;11.38;4.63;;;;;;;9.26;65.43;100914.31;5023271;28;20544;-54
2023/05/21 05:39:34;;;;;;;9.77;3.92;;;;;;;9.34;65.28;100916.16;5019311;28;20049;-50
2023/05/21 05:42:02;;;;;;;9.50;4.07;;;;;;;9.41;65.75;100918.00;5003819;28;20058;-51
2023/05/21 05:44:29;;;;;;;11.65;4.20;;;;;;;9.46;65.55;100921.53;5009150;28;20065;-50
2023/05/21 05:46:55;;;;;;;11.27;4.45;;;;;;;9.57;65.20;100928.59;5016772;28;20045;-54
2023/05/21 05:49:22;;;;;;;8.48;4.20;;;;;;;9.69;65.43;100923.59;5021477;28;20055;-50
2023/05/21 05:51:49;;;;;;;10.40;4.60;;;;;;;9.84;65.46;100929.84;5024219;28;20612;-55
2023/05/21 05:54:15;;;;;;;12.75;4.82;;;;;;;10.02;65.55;100937.88;5026623;28;20095;-50
2023/05/21 05:56:42;;;;;;;13.45;4.85;;;;;;;10.22;65.93;100933.81;5025365;28;20046;-48
2023/05/21 05:59:08;;;;;;;11.95;4.80;;;;;;;10.38;65.10;100940.06;5022876;28;20052;-52
2023/05/21 06:01:35;;;;;;;11.07;5.10;;;;;;;10.54;65.18;100931.66;5025747;28;20042;-53
2023/05/21 06:04:02;;;;;;;11.73;4.40;;;;;;;10.71;65.27;100928.38;5026416;28;20049;-52
2023/05/21 06:06:28;;;;;;;11.93;4.43;;;;;;;10.89;65.68;100937.22;5021703;28;20056;-51
2023/05/21 06:08:55;;;;;;;9.95;3.90;;;;;;;11.06;65.18;100934.78;5003890;28;20058;-52
2023/05/21 06:11:21;;;;;;;11.88;4.95;;;;;;;11.22;64.15;100935.81;5020652;28;20045;-51
2023/05/21 06:13:48;;;;;;;13.75;4.30;;;;;;;11.43;65.27;100934.25;5025105;28;20057;-54
2023/05/21 06:16:15;;;;;;;11.80;3.92;;;;;;;11.65;63.58;100930.06;5026533;28;20042;-52
2023/05/21 06:18:42;;;;;;;8.10;4.18;;;;;;;11.89;63.38;100930.25;5020575;28;20042;-49
2023/05/21 06:21:09;;;;;;;10.57;4.50;;;;;;;12.13;63.48;100931.25;5019067;28;20100;-50
2023/05/21 06:23:36;;;;;;;10.10;3.90;;;;;;;12.36;63.06;100933.09;5024478;28;20049;-50
2023/05/21 06:26:03;;;;;;;9.68;4.03;;;;;;;12.57;62.49;100938.34;5023974;28;20049;-48
2023/05/21 06:28:30;;;;;;;7.07;3.45;;;;;;;12.80;61.97;100934.97;5018670;28;20054;-52
2023/05/21 06:30:56;;;;;;;8.68;3.13;;;;;;;13.04;61.63;100938.47;5013080;28;20064;-51
2023/05/21 06:33:23;;;;;;;7.40;3.85;;;;;;;13.30;62.35;100941.94;5025715;28;20049;-50
2023/05/21 06:35:50;;;;;;;8.80;3.75;;;;;;;13.54;62.14;100941.13;5027216;28;20049;-49
2023/05/21 06:38:16;;;;;;;9.75;3.83;;;;;;;13.81;61.30;100934.13;5026858;28;20107;-48
2023/05/21 06:40:46;;;;;;;7.65;3.53;;;;;;;14.10;60.86;100941.03;5027288;28;20045;-51
2023/05/21 06:43:13;;;;;;;9.50;3.75;;;;;;;14.34;60.94;100941.81;5022909;28;20053;-49
2023/05/21 06:45:40;;;;;;;8.25;3.58;;;;;;;14.64;60.21;100939.06;5019527;28;20057;-53
2023/05/21 06:48:07;;;;;;;8.00;3.60;;;;;;;14.89;59.84;100950.25;5009936;28;20774;-51
2023/05/21 06:50:33;;;;;;;7.35;3.28;;;;;;;15.20;59.47;100930.03;5016131;28;20073;-49
2023/05/21 06:53:00;;;;;;;6.72;3.92;;;;;;;15.52;58.71;100941.94;5022671;28;20115;-49
2023/05/21 06:55:27;;;;;;;6.50;3.35;;;;;;;15.81;58.52;100946.03;5023094;28;20045;-54
2023/05/21 06:57:53;;;;;;;6.88;3.65;;;;;;;16.09;57.92;100944.88;5027438;28;20056;-49
2023/05/21 07:00:20;;;;;;;9.82;3.63;;;;;;;16.38;57.73;100944.53;5023533;28;20528;-48
2023/05/21 07:02:46;;;;;;;6.55;3.10;;;;;;;16.58;56.86;100948.63;5023328;28;20038;-52
2023/05/21 07:05:13;;;;;;;8.68;3.75;;;;;;;16.80;56.37;100941.38;5008323;28;20072;-49
2023/05/21 07:07:40;;;;;;;8.27;3.30;;;;;;;16.96;55.35;100944.63;5012791;28;20060;-52
2023/05/21 07:10:07;;;;;;;7.53;3.60;;;;;;;17.17;54.86;100941.72;5024724;28;20045;-52
2023/05/21 07:12:34;;;;;;;7.15;3.40;;;;;;;17.37;54.11;100944.03;5026721;28;20050;-51
2023/05/21 07:15:01;;;;;;;6.38;2.97;;;;;;;17.54;54.50;100940.25;5025900;28;20100;-52
2023/05/21 07:17:27;;;;;;;6.93;3.20;;;;;;;17.75;54.26;100935.50;5026481;28;20354;-52
2023/05/21 07:19:54;;;;;;;9.05;3.08;;;;;;;18.04;53.78;100937.56;5026249;28;20041;-52
2023/05/21 07:22:21;;;;;;;7.20;3.42;;;;;;;18.21;52.77;100932.00;5027715;28;20144;-46
2023/05/21 07:24:48;;;;;;;6.78;3.08;;;;;;;18.38;52.30;100938.69;5027044;28;20541;-52
2023/05/21 07:27:14;;;;;;;8.75;3.72;;;;;;;18.60;52.40;100933.81;5024907;28;20048;-52
2023/05/21 07:29:51;;;;;;;6.75;3.25;;;;;;;18.84;51.42;100933.28;5026164;28;20140;-50
2023/05/21 07:32:18;;;;;;;8.38;3.28;;;;;;;19.02;51.22;100932.84;5024798;28;20060;-49
2023/05/21 07:34:45;;;;;;;8.95;3.05;;;;;;;19.21;50.91;100927.19;5026082;28;20064;-50
2023/05/21 07:37:12;;;;;;;8.75;3.30;;;;;;;19.42;50.41;100931.97;5025389;28;20049;-53
2023/05/21 07:39:39;;;;;;;8.60;3.50;;;;;;;19.63;49.68;100935.78;5021482;28;20049;-53
2023/05/21 07:42:06;;;;;;;10.50;3.10;;;;;;;19.82;49.66;100935.31;5029390;28;20603;-49
2023/05/21 07:44:32;;;;;;;7.72;2.80;;;;;;;20.06;49.14;100935.53;5009838;28;20069;-51
2023/05/21 07:46:59;;;;;;;6.85;2.75;;;;;;;20.30;49.20;100936.63;5006545;28;20056;-51
2023/05/21 07:49:26;;;;;;;8.13;3.20;;;;;;;20.57;48.81;100941.97;5015545;28;20053;-49
2023/05/21 07:51:52;;;;;;;7.45;2.78;;;;;;;20.71;47.79;100936.28;5026884;28;20045;-49
2023/05/21 07:54:19;;;;;;;7.53;2.97;;;;;;;20.77;46.49;100946.59;5031450;28;20130;-51
2023/05/21 07:56:46;;;;;;;4.63;2.25;;;;;;;20.91;47.03;100942.69;5025524;28;20052;-51
2023/05/21 07:59:15;;;;;;;5.53;2.65;;;;;;;21.09;46.43;100943.00;5025225;28;20048;-51
2023/05/21 08:01:43;;;;;;;5.75;2.40;;;;;;;21.21;45.92;100947.84;5021476;28;20145;-53
2023/05/21 08:04:09;;;;;;;5.20;3.15;;;;;;;21.29;45.88;100943.22;5027282;28;20140;-50
2023/05/21 08:06:36;;;;;;;6.88;2.33;;;;;;;21.36;44.30;100937.72;5012462;28;20141;-48
2023/05/21 08:09:05;;;;;;;5.97;1.92;;;;;;;21.41;44.61;100944.56;5027393;28;20163;-48
2023/05/21 08:11:31;;;;;;;6.95;2.63;;;;;;;21.50;44.33;100939.88;5024594;28;20382;-47
2023/05/21 08:13:58;;;;;;;3.97;1.80;;;;;;;21.53;44.27;100932.75;5020979;28;20052;-54
2023/05/21 08:16:25;;;;;;;5.00;2.30;;;;;;;21.56;42.45;100935.28;5013519;28;20049;-53
2023/05/21 08:18:52;;;;;;;5.85;2.28;;;;;;;21.57;43.42;100925.59;5007732;28;20046;-47
2023/05/21 08:21:19;;;;;;;5.28;2.30;;;;;;;21.74;44.15;100929.44;5022879;28;20541;-49
2023/05/21 08:23:46;;;;;;;4.95;2.20;;;;;;;21.90;43.24;100937.66;5000327;28;20052;-50
2023/05/21 08:26:15;;;;;;;3.80;2.00;;;;;;;21.96;42.16;100926.91;5021911;28;20103;-49
2023/05/21 08:28:42;;;;;;;5.95;2.10;;;;;;;22.07;43.07;100934.41;5025821;28;20576;-49
2023/05/21 08:31:09;;;;;;;5.97;1.95;;;;;;;22.23;42.15;100924.16;5025616;28;20107;-53
2023/05/21 08:33:37;;;;;;;7.57;2.53;;;;;;;22.32;41.76;100934.34;5027026;28;20045;-53
2023/05/21 08:36:05;;;;;;;3.33;1.95;;;;;;;22.41;42.39;100927.00;5027774;28;20084;-54
2023/05/21 08:38:33;;;;;;;4.63;1.92;;;;;;;22.54;42.17;100928.25;5022686;28;20081;-52
2023/05/21 08:41:00;;;;;;;4.80;1.88;;;;;;;22.71;41.91;100939.94;5026057;28;20596;-48
2023/05/21 08:43:27;;;;;;;5.43;2.00;;;;;;;22.81;41.36;100935.16;5013533;28;20053;-51
2023/05/21 08:45:57;;;;;;;3.28;2.33;;;;;;;22.96;41.97;100928.38;5008959;28;20045;-49
2023/05/21 08:48:25;;;;;;;5.07;2.38;;;;;;;23.14;41.67;100926.78;5023591;28;20059;-49
2023/05/21 08:50:53;;;;;;;4.82;2.15;;;;;;;23.17;40.85;100931.06;5022109;28;20041;-54
2023/05/21 08:53:22;;;;;;;2.92;1.38;;;;;;;23.18;41.17;100932.78;5021150;28;20058;-49
2023/05/21 08:55:55;;;;;;;5.53;1.73;;;;;;;23.25;41.41;100923.69;5023204;28;20077;-53
2023/05/21 08:58:22;;;;;;;3.00;1.85;;;;;;;23.28;40.68;100928.84;5021418;28;20072;-55
2023/05/21 09:00:49;;;;;;;4.50;1.70;;;;;;;23.28;40.79;100928.84;5020261;28;20053;-51
2023/05/21 09:03:15;;;;;;;4.32;1.77;;;;;;;23.40;40.53;100926.63;5022598;28;20046;-50
2023/05/21 09:05:44;;;;;;;4.47;1.80;;;;;;;23.41;40.55;100928.34;5018157;28;20099;-53
2023/05/21 09:10:49;;;;;;;3.92;1.65;;;;;;;23.61;39.66;100930.97;5073665;27;20982;-52
2023/05/21 09:13:17;;;;;;;3.25;1.92;;;;;;;23.72;39.87;100924.38;5053966;28;20060;-51
2023/05/21 09:15:45;;;;;;;4.47;1.20;;;;;;;23.82;39.69;100917.75;5062088;28;20051;-52
2023/05/21 09:18:12;;;;;;;3.88;1.23;;;;;;;23.78;38.70;100918.81;5076021;28;20399;-52
2023/05/21 09:20:39;;;;;;;4.40;1.23;;;;;;;23.79;38.59;100915.22;5096433;28;20076;-51
2023/05/21 09:23:15;;;;;;;2.75;1.40;;;;;;;23.73;38.37;100918.13;5102348;28;20047;-49
2023/05/21 09:25:46;;;;;;;2.88;1.27;;;;;;;23.68;38.60;100925.44;5098824;28;20048;-49
2023/05/21 09:28:15;;;;;;;5.32;1.27;;;;;;;23.58;38.45;100920.53;5089234;28;20056;-49
2023/05/21 09:30:44;;;;;;;4.63;1.77;;;;;;;23.55;38.66;100920.69;5095254;28;20052;-52
2023/05/21 09:33:11;;;;;;;4.50;1.30;;;;;;;23.68;38.48;100920.13;5091729;28;20441;-51
2023/05/21 09:35:46;;;;;;;3.17;1.73;;;;;;;23.81;38.75;100916.00;5091441;28;20086;-50
2023/05/21 09:38:12;;;;;;;3.00;1.40;;;;;;;23.91;38.98;100923.53;5082927;28;20045;-53
2023/05/21 09:40:47;;;;;;;3.45;2.13;;;;;;;24.01;37.83;100917.75;5072881;28;20055;-48
2023/05/21 09:43:15;;;;;;;3.00;1.92;;;;;;;24.05;37.63;100918.50;5073468;28;20129;-53
2023/05/21 09:45:51;;;;;;;2.83;2.05;;;;;;;24.15;38.11;100918.09;5067877;28;20055;-52
2023/05/21 09:48:32;;;;;;;3.45;1.63;;;;;;;24.23;37.58;100911.53;5073620;28;20059;-49
2023/05/21 09:54:00;;;;;;;3.10;2.65;;;;;;;24.59;37.74;100917.75;5102038;27;20401;-48
2023/05/21 09:56:29;;;;;;;4.53;3.28;;;;;;;24.75;37.21;100927.63;5063567;28;20059;-51
2023/05/21 09:58:59;;;;;;;5.80;3.13;;;;;;;24.69;37.02;100910.22;5055900;28;20110;-48
2023/05/21 10:01:27;;;;;;;4.30;3.30;;;;;;;24.62;37.02;100911.50;5055847;28;20052;-47
2023/05/21 10:03:55;;;;;;;4.32;1.88;;;;;;;24.65;36.85;100903.38;5061711;28;20585;-50
2023/05/21 10:06:26;;;;;;;4.03;3.03;;;;;;;24.75;36.87;100911.72;5051458;28;20110;-48
2023/05/21 10:08:56;;;;;;;3.58;3.28;;;;;;;24.89;37.55;100914.59;5054219;28;20048;-49
2023/05/21 10:11:26;;;;;;;4.57;4.05;;;;;;;25.16;37.10;100908.84;5058219;28;20044;-49
2023/05/21 10:13:57;;;;;;;3.13;2.75;;;;;;;25.32;36.94;100902.75;5057394;28;20127;-49
2023/05/21 10:16:24;;;;;;;3.55;3.25;;;;;;;25.32;36.56;100904.56;5058001;28;20048;-50
2023/05/21 10:18:53;;;;;;;3.72;3.30;;;;;;;25.33;36.40;100907.13;5060949;28;20051;-47
2023/05/21 10:21:21;;;;;;;4.45;3.47;;;;;;;25.20;36.62;100908.69;5040425;28;20056;-50
2023/05/21 10:23:50;;;;;;;3.53;3.15;;;;;;;25.11;36.08;100907.34;5037067;28;20053;-50
2023/05/21 10:26:20;;;;;;;4.07;3.65;;;;;;;25.10;36.32;100906.53;5042355;28;20049;-48
2023/05/21 10:28:49;;;;;;;6.13;4.32;;;;;;;25.15;36.38;100899.19;5042512;28;20564;-51
2023/05/21 10:31:17;;;;;;;3.83;3.20;;;;;;;25.08;36.09;100907.50;5040565;28;20053;-48
2023/05/21 10:33:43;;;;;;;5.57;3.67;;;;;;;24.99;36.51;100900.91;5039160;28;20052;-48
2023/05/21 10:36:11;;;;;;;8.75;3.70;;;;;;;25.03;37.07;100895.34;5041799;28;20489;-51
2023/05/21 10:38:37;;;;;;;5.32;3.78;;;;;;;24.89;37.06;100893.41;5035495;28;20054;-50
2023/05/21 10:41:06;;;;;;;4.72;3.85;;;;;;;24.79;36.60;100892.13;5054101;28;20555;-48
2023/05/21 10:49:26;;;;;;;4.03;2.20;;;;;;;24.83;37.36;100888.38;5050718;28;20378;-49
2023/05/21 10:52:06;;;;;;;3.67;2.05;;;;;;;24.75;37.32;100887.88;5020453;28;20104;-45
2023/05/21 10:59:49;;;;;;;2.97;2.10;;;;;;;24.27;37.29;100888.41;5076034;27;20409;-51
2023/05/21 11:02:19;;;;;;;6.35;3.17;;;;;;;24.27;37.07;100885.75;5060734;28;20501;-50
2023/05/21 11:04:47;;;;;;;5.45;2.30;;;;;;;24.33;37.51;100880.19;5061972;28;20103;-51
2023/05/21 11:07:23;;;;;;;4.72;2.33;;;;;;;24.33;36.91;100885.47;5050860;28;20408;-48
2023/05/21 11:09:50;;;;;;;5.82;3.03;;;;;;;24.29;37.46;100878.63;5058273;28;20049;-50
2023/05/21 11:12:16;;;;;;;4.10;3.40;;;;;;;24.29;37.39;100870.66;5052805;28;20386;-48
2023/05/21 11:14:59;;;;;;;6.40;3.15;;;;;;;24.23;37.09;100868.31;5051138;28;20076;-46
2023/05/21 11:17:43;;;;;;;5.60;2.45;;;;;;;24.26;37.65;100868.16;5050332;28;20052;-48
2023/05/21 11:20:12;;;;;;;8.75;2.05;;;;;;;24.23;37.74;100869.19;5044665;28;20045;-50
2023/05/21 11:22:39;;;;;;;4.60;2.90;;;;;;;24.26;37.99;100873.47;5042413;28;20049;-49
2023/05/21 11:25:07;;;;;;;6.28;2.78;;;;;;;24.36;37.44;100866.81;5038621;28;20140;-48
2023/05/21 11:30:14;;;;;;;5.35;3.63;;;;;;;24.37;37.06;100860.56;5054889;28;20426;-51
2023/05/21 11:38:22;;;;;;;6.45;2.40;;;;;;;24.15;37.83;100859.88;5026351;27;20410;-48
2023/05/21 11:40:53;;;;;;;3.38;2.33;;;;;;;24.10;37.33;100855.63;4995872;28;20520;-47
2023/05/21 11:43:20;;;;;;;5.78;1.88;;;;;;;23.95;37.65;100853.69;4998913;28;20133;-47
2023/05/21 11:45:46;;;;;;;5.07;2.45;;;;;;;23.80;38.09;100850.81;4994047;28;20054;-49
2023/05/21 11:48:13;;;;;;;4.38;2.60;;;;;;;23.66;37.88;100853.22;5015072;28;20054;-49
2023/05/21 11:50:41;;;;;;;3.97;2.38;;;;;;;23.68;38.13;100851.38;4991733;28;20141;-49
2023/05/21 11:53:11;;;;;;;3.78;2.38;;;;;;;23.69;38.17;100845.16;4997883;28;20054;-50
2023/05/21 11:55:42;;;;;;;;;;;;;;;23.40;37.97;100836.78;4999040;28;20058;-50
2023/05/21 11:58:12;;;;;;;4.10;2.28;;;;;;;23.53;38.91;100837.91;5000127;28;20255;-48
2023/05/21 12:00:39;;;;;;;4.72;1.80;;;;;;;23.52;38.01;100841.50;4992467;28;20085;-51